sensor_id;sensor_type;location;lat;lon;timestamp;temperature;humidity
69533;DHT22;56729;52.036;5.332;2023-04-03T00:00:21;4.60;99.90
69533;DHT22;56729;52.036;5.332;2023-04-03T00:01:23;4.60;99.90
69533;DHT22;56729;52.036;5.332;2023-04-03T00:02:25;4.60;99.90
69533;DHT22;56729;52.036;5.332;2023-04-03T00:03:27;4.60;99.90
69533;DHT22;56729;52.036;5.332;2023-04-03T00:04:29;4.60;99.90
69533;DHT22;56729;52.036;5.332;2023-04-03T00:05:31;4.60;99.90
69533;DHT22;56729;52.036;5.332;2023-04-03T00:06:34;4.60;99.90
69533;DHT22;56729;52.036;5.332;2023-04-03T00:07:36;4.60;99.90
69533;DHT22;56729;52.036;5.332;2023-04-03T00:08:39;4.60;99.90
69533;DHT22;56729;52.036;5.332;2023-04-03T00:09:41;4.60;99.90
69533;DHT22;56729;52.036;5.332;2023-04-03T00:10:44;4.60;99.90
69533;DHT22;56729;52.036;5.332;2023-04-03T00:11:47;4.60;99.90
69533;DHT22;56729;52.036;5.332;2023-04-03T00:12:48;4.60;99.90
69533;DHT22;56729;52.036;5.332;2023-04-03T00:13:51;4.50;99.90
69533;DHT22;56729;52.036;5.332;2023-04-03T00:14:53;4.50;99.90
69533;DHT22;56729;52.036;5.332;2023-04-03T00:15:56;4.50;99.90
69533;DHT22;56729;52.036;5.332;2023-04-03T00:16:58;4.50;99.90
69533;DHT22;56729;52.036;5.332;2023-04-03T00:18:00;4.50;99.90
69533;DHT22;56729;52.036;5.332;2023-04-03T00:19:02;4.50;99.90
69533;DHT22;56729;52.036;5.332;2023-04-03T00:20:05;4.50;99.90
69533;DHT22;56729;52.036;5.332;2023-04-03T00:21:09;4.50;99.90
69533;DHT22;56729;52.036;5.332;2023-04-03T00:22:11;4.50;99.90
69533;DHT22;56729;52.036;5.332;2023-04-03T00:23:13;4.50;99.90
69533;DHT22;56729;52.036;5.332;2023-04-03T00:24:15;4.50;99.90
69533;DHT22;56729;52.036;5.332;2023-04-03T00:25:16;4.50;99.90
69533;DHT22;56729;52.036;5.332;2023-04-03T00:26:18;4.50;99.90
69533;DHT22;56729;52.036;5.332;2023-04-03T00:27:21;4.50;99.90
69533;DHT22;56729;52.036;5.332;2023-04-03T00:28:23;4.50;99.90
69533;DHT22;56729;52.036;5.332;2023-04-03T00:29:26;4.50;99.90
69533;DHT22;56729;52.036;5.332;2023-04-03T00:30:28;4.50;99.90
69533;DHT22;56729;52.036;5.332;2023-04-03T00:31:30;4.40;99.90
69533;DHT22;56729;52.036;5.332;2023-04-03T00:32:32;4.50;99.90
69533;DHT22;56729;52.036;5.332;2023-04-03T00:33:36;4.50;99.90
69533;DHT22;56729;52.036;5.332;2023-04-03T00:34:38;4.40;99.90
69533;DHT22;56729;52.036;5.332;2023-04-03T00:35:41;4.50;99.90
69533;DHT22;56729;52.036;5.332;2023-04-03T00:36:44;4.40;99.90
69533;DHT22;56729;52.036;5.332;2023-04-03T00:37:46;4.40;99.90
69533;DHT22;56729;52.036;5.332;2023-04-03T00:38:48;4.40;99.90
69533;DHT22;56729;52.036;5.332;2023-04-03T00:39:50;4.40;99.90
69533;DHT22;56729;52.036;5.332;2023-04-03T00:40:52;4.40;99.90
69533;DHT22;56729;52.036;5.332;2023-04-03T00:41:54;4.40;99.90
69533;DHT22;56729;52.036;5.332;2023-04-03T00:42:59;4.40;99.90
69533;DHT22;56729;52.036;5.332;2023-04-03T00:44:17;4.40;99.90
69533;DHT22;56729;52.036;5.332;2023-04-03T00:45:37;4.40;99.90
69533;DHT22;56729;52.036;5.332;2023-04-03T00:46:39;4.40;99.90
69533;DHT22;56729;52.036;5.332;2023-04-03T00:47:41;4.40;99.90
69533;DHT22;56729;52.036;5.332;2023-04-03T00:48:46;4.40;99.90
69533;DHT22;56729;52.036;5.332;2023-04-03T00:49:49;4.30;99.90
69533;DHT22;56729;52.036;5.332;2023-04-03T00:50:52;4.30;99.90
69533;DHT22;56729;52.036;5.332;2023-04-03T00:51:55;4.30;99.90
69533;DHT22;56729;52.036;5.332;2023-04-03T00:52:59;4.30;99.90
69533;DHT22;56729;52.036;5.332;2023-04-03T00:54:05;4.30;99.90
69533;DHT22;56729;52.036;5.332;2023-04-03T00:55:09;4.30;99.90
69533;DHT22;56729;52.036;5.332;2023-04-03T00:56:13;4.30;99.90
69533;DHT22;56729;52.036;5.332;2023-04-03T00:57:16;4.30;99.90
69533;DHT22;56729;52.036;5.332;2023-04-03T00:58:20;4.30;99.90
69533;DHT22;56729;52.036;5.332;2023-04-03T00:59:31;4.30;99.90
69533;DHT22;56729;52.036;5.332;2023-04-03T01:00:35;4.30;99.90
69533;DHT22;56729;52.036;5.332;2023-04-03T01:01:39;4.30;99.90
69533;DHT22;56729;52.036;5.332;2023-04-03T01:02:41;4.30;99.90
69533;DHT22;56729;52.036;5.332;2023-04-03T01:03:44;4.30;99.90
69533;DHT22;56729;52.036;5.332;2023-04-03T01:04:47;4.30;99.90
69533;DHT22;56729;52.036;5.332;2023-04-03T01:05:49;4.30;99.90
69533;DHT22;56729;52.036;5.332;2023-04-03T01:06:51;4.30;99.90
69533;DHT22;56729;52.036;5.332;2023-04-03T01:07:54;4.30;99.90
69533;DHT22;56729;52.036;5.332;2023-04-03T01:08:56;4.30;99.90
69533;DHT22;56729;52.036;5.332;2023-04-03T01:10:00;4.30;99.90
69533;DHT22;56729;52.036;5.332;2023-04-03T01:11:02;4.30;99.90
69533;DHT22;56729;52.036;5.332;2023-04-03T01:13:30;4.30;99.90
69533;DHT22;56729;52.036;5.332;2023-04-03T01:14:32;4.30;99.90
69533;DHT22;56729;52.036;5.332;2023-04-03T01:15:34;4.30;99.90
69533;DHT22;56729;52.036;5.332;2023-04-03T01:16:36;4.30;99.90
69533;DHT22;56729;52.036;5.332;2023-04-03T01:17:47;4.20;99.90
69533;DHT22;56729;52.036;5.332;2023-04-03T01:18:49;4.30;99.90
69533;DHT22;56729;52.036;5.332;2023-04-03T01:20:22;4.30;99.90
69533;DHT22;56729;52.036;5.332;2023-04-03T01:25:30;4.20;99.90
69533;DHT22;56729;52.036;5.332;2023-04-03T01:26:33;4.20;99.90
69533;DHT22;56729;52.036;5.332;2023-04-03T01:27:35;4.20;99.90
69533;DHT22;56729;52.036;5.332;2023-04-03T01:28:37;4.20;99.90
69533;DHT22;56729;52.036;5.332;2023-04-03T01:29:40;4.20;99.90
69533;DHT22;56729;52.036;5.332;2023-04-03T01:31:57;4.20;99.90
69533;DHT22;56729;52.036;5.332;2023-04-03T01:33:00;4.20;99.90
69533;DHT22;56729;52.036;5.332;2023-04-03T01:34:02;4.20;99.90
69533;DHT22;56729;52.036;5.332;2023-04-03T01:35:08;4.10;99.90
69533;DHT22;56729;52.036;5.332;2023-04-03T01:36:17;4.20;99.90
69533;DHT22;56729;52.036;5.332;2023-04-03T01:37:19;4.20;99.90
69533;DHT22;56729;52.036;5.332;2023-04-03T01:38:22;4.10;99.90
69533;DHT22;56729;52.036;5.332;2023-04-03T01:39:24;4.10;99.90
69533;DHT22;56729;52.036;5.332;2023-04-03T01:40:26;4.10;99.90
69533;DHT22;56729;52.036;5.332;2023-04-03T01:41:28;4.10;99.90
69533;DHT22;56729;52.036;5.332;2023-04-03T01:42:37;4.10;99.90
69533;DHT22;56729;52.036;5.332;2023-04-03T01:43:39;4.00;99.90
69533;DHT22;56729;52.036;5.332;2023-04-03T01:44:41;4.00;99.90
69533;DHT22;56729;52.036;5.332;2023-04-03T01:45:43;4.00;99.90
69533;DHT22;56729;52.036;5.332;2023-04-03T01:46:45;4.00;99.90
69533;DHT22;56729;52.036;5.332;2023-04-03T01:47:48;4.00;99.90
69533;DHT22;56729;52.036;5.332;2023-04-03T01:48:50;3.90;99.90
69533;DHT22;56729;52.036;5.332;2023-04-03T01:49:52;4.00;99.90
69533;DHT22;56729;52.036;5.332;2023-04-03T01:50:54;4.00;99.90
69533;DHT22;56729;52.036;5.332;2023-04-03T01:51:57;4.00;99.90
69533;DHT22;56729;52.036;5.332;2023-04-03T01:52:59;3.90;99.90
69533;DHT22;56729;52.036;5.332;2023-04-03T01:54:01;3.90;99.90
69533;DHT22;56729;52.036;5.332;2023-04-03T01:55:03;3.90;99.90
69533;DHT22;56729;52.036;5.332;2023-04-03T01:56:06;3.90;99.90
69533;DHT22;56729;52.036;5.332;2023-04-03T01:57:08;3.90;99.90
69533;DHT22;56729;52.036;5.332;2023-04-03T01:58:10;3.90;99.90
69533;DHT22;56729;52.036;5.332;2023-04-03T01:59:12;3.90;99.90
69533;DHT22;56729;52.036;5.332;2023-04-03T02:00:14;3.90;99.90
69533;DHT22;56729;52.036;5.332;2023-04-03T02:01:16;3.80;99.90
69533;DHT22;56729;52.036;5.332;2023-04-03T02:02:18;3.80;99.90
69533;DHT22;56729;52.036;5.332;2023-04-03T02:03:22;3.80;99.90
69533;DHT22;56729;52.036;5.332;2023-04-03T02:04:25;3.80;99.90
69533;DHT22;56729;52.036;5.332;2023-04-03T02:05:27;3.80;99.90
69533;DHT22;56729;52.036;5.332;2023-04-03T02:06:29;3.70;99.90
69533;DHT22;56729;52.036;5.332;2023-04-03T02:07:31;3.70;99.90
69533;DHT22;56729;52.036;5.332;2023-04-03T02:08:33;3.70;99.90
69533;DHT22;56729;52.036;5.332;2023-04-03T02:09:36;3.80;99.90
69533;DHT22;56729;52.036;5.332;2023-04-03T02:10:37;3.70;99.90
69533;DHT22;56729;52.036;5.332;2023-04-03T02:11:40;3.70;99.90
69533;DHT22;56729;52.036;5.332;2023-04-03T02:12:42;3.70;99.90
69533;DHT22;56729;52.036;5.332;2023-04-03T02:13:44;3.70;99.90
69533;DHT22;56729;52.036;5.332;2023-04-03T02:14:47;3.60;99.90
69533;DHT22;56729;52.036;5.332;2023-04-03T02:15:49;3.70;99.90
69533;DHT22;56729;52.036;5.332;2023-04-03T02:16:51;3.60;99.90
69533;DHT22;56729;52.036;5.332;2023-04-03T02:17:55;3.60;99.90
69533;DHT22;56729;52.036;5.332;2023-04-03T02:18:57;3.60;99.90
69533;DHT22;56729;52.036;5.332;2023-04-03T02:19:59;3.60;99.90
69533;DHT22;56729;52.036;5.332;2023-04-03T02:21:01;3.50;99.90
69533;DHT22;56729;52.036;5.332;2023-04-03T02:22:04;3.50;99.90
69533;DHT22;56729;52.036;5.332;2023-04-03T02:23:06;3.50;99.90
69533;DHT22;56729;52.036;5.332;2023-04-03T02:24:08;3.50;99.90
69533;DHT22;56729;52.036;5.332;2023-04-03T02:25:10;3.50;99.90
69533;DHT22;56729;52.036;5.332;2023-04-03T02:26:14;3.50;99.90
69533;DHT22;56729;52.036;5.332;2023-04-03T02:27:19;3.50;99.90
69533;DHT22;56729;52.036;5.332;2023-04-03T02:28:22;3.50;99.90
69533;DHT22;56729;52.036;5.332;2023-04-03T02:29:24;3.50;99.90
69533;DHT22;56729;52.036;5.332;2023-04-03T02:30:27;3.40;99.90
69533;DHT22;56729;52.036;5.332;2023-04-03T02:31:29;3.40;99.90
69533;DHT22;56729;52.036;5.332;2023-04-03T02:32:32;3.40;99.90
69533;DHT22;56729;52.036;5.332;2023-04-03T02:33:35;3.40;99.90
69533;DHT22;56729;52.036;5.332;2023-04-03T02:34:40;3.40;99.90
69533;DHT22;56729;52.036;5.332;2023-04-03T02:35:43;3.40;99.90
69533;DHT22;56729;52.036;5.332;2023-04-03T02:36:45;3.30;99.90
69533;DHT22;56729;52.036;5.332;2023-04-03T02:37:48;3.30;99.90
69533;DHT22;56729;52.036;5.332;2023-04-03T02:38:49;3.30;99.90
69533;DHT22;56729;52.036;5.332;2023-04-03T02:39:51;3.20;99.90
69533;DHT22;56729;52.036;5.332;2023-04-03T02:40:53;3.20;99.90
69533;DHT22;56729;52.036;5.332;2023-04-03T02:42:02;3.20;99.90
69533;DHT22;56729;52.036;5.332;2023-04-03T02:43:04;3.20;99.90
69533;DHT22;56729;52.036;5.332;2023-04-03T02:44:09;3.10;99.90
69533;DHT22;56729;52.036;5.332;2023-04-03T02:45:12;3.10;99.90
69533;DHT22;56729;52.036;5.332;2023-04-03T02:46:14;3.10;99.90
69533;DHT22;56729;52.036;5.332;2023-04-03T02:47:17;3.10;99.90
69533;DHT22;56729;52.036;5.332;2023-04-03T02:48:19;3.10;99.90
69533;DHT22;56729;52.036;5.332;2023-04-03T02:49:21;3.10;99.90
69533;DHT22;56729;52.036;5.332;2023-04-03T02:50:23;3.10;99.90
69533;DHT22;56729;52.036;5.332;2023-04-03T02:51:25;3.10;99.90
69533;DHT22;56729;52.036;5.332;2023-04-03T02:52:27;3.10;99.90
69533;DHT22;56729;52.036;5.332;2023-04-03T02:53:32;3.10;99.90
69533;DHT22;56729;52.036;5.332;2023-04-03T02:54:40;3.10;99.90
69533;DHT22;56729;52.036;5.332;2023-04-03T02:55:44;3.10;99.90
69533;DHT22;56729;52.036;5.332;2023-04-03T02:56:46;3.10;99.90
69533;DHT22;56729;52.036;5.332;2023-04-03T02:57:48;3.10;99.90
69533;DHT22;56729;52.036;5.332;2023-04-03T02:58:50;3.10;99.90
69533;DHT22;56729;52.036;5.332;2023-04-03T02:59:53;3.10;99.90
69533;DHT22;56729;52.036;5.332;2023-04-03T03:00:54;3.20;99.90
69533;DHT22;56729;52.036;5.332;2023-04-03T03:01:56;3.20;99.90
69533;DHT22;56729;52.036;5.332;2023-04-03T03:02:58;3.20;99.90
69533;DHT22;56729;52.036;5.332;2023-04-03T03:04:01;3.10;99.90
69533;DHT22;56729;52.036;5.332;2023-04-03T03:05:03;3.10;99.90
69533;DHT22;56729;52.036;5.332;2023-04-03T03:06:16;3.10;99.90
69533;DHT22;56729;52.036;5.332;2023-04-03T03:07:18;3.10;99.90
69533;DHT22;56729;52.036;5.332;2023-04-03T03:08:20;3.10;99.90
69533;DHT22;56729;52.036;5.332;2023-04-03T03:09:22;3.10;99.90
69533;DHT22;56729;52.036;5.332;2023-04-03T03:10:24;3.10;99.90
69533;DHT22;56729;52.036;5.332;2023-04-03T03:11:26;3.10;99.90
69533;DHT22;56729;52.036;5.332;2023-04-03T03:12:28;3.10;99.90
69533;DHT22;56729;52.036;5.332;2023-04-03T03:13:32;3.10;99.90
69533;DHT22;56729;52.036;5.332;2023-04-03T03:14:34;3.10;99.90
69533;DHT22;56729;52.036;5.332;2023-04-03T03:15:36;3.10;99.90
69533;DHT22;56729;52.036;5.332;2023-04-03T03:16:38;3.10;99.90
69533;DHT22;56729;52.036;5.332;2023-04-03T03:17:40;3.10;99.90
69533;DHT22;56729;52.036;5.332;2023-04-03T03:18:42;3.20;99.90
69533;DHT22;56729;52.036;5.332;2023-04-03T03:19:44;3.10;99.90
69533;DHT22;56729;52.036;5.332;2023-04-03T03:20:51;3.10;99.90
69533;DHT22;56729;52.036;5.332;2023-04-03T03:21:54;3.10;99.90
69533;DHT22;56729;52.036;5.332;2023-04-03T03:22:56;3.10;99.90
69533;DHT22;56729;52.036;5.332;2023-04-03T03:23:59;3.10;99.90
69533;DHT22;56729;52.036;5.332;2023-04-03T03:25:02;3.10;99.90
69533;DHT22;56729;52.036;5.332;2023-04-03T03:26:07;3.10;99.90
69533;DHT22;56729;52.036;5.332;2023-04-03T03:27:09;3.10;99.90
69533;DHT22;56729;52.036;5.332;2023-04-03T03:28:11;3.10;99.90
69533;DHT22;56729;52.036;5.332;2023-04-03T03:29:13;3.10;99.90
69533;DHT22;56729;52.036;5.332;2023-04-03T03:30:16;3.10;99.90
69533;DHT22;56729;52.036;5.332;2023-04-03T03:31:18;3.10;99.90
69533;DHT22;56729;52.036;5.332;2023-04-03T03:32:19;3.10;99.90
69533;DHT22;56729;52.036;5.332;2023-04-03T03:33:22;3.10;99.90
69533;DHT22;56729;52.036;5.332;2023-04-03T03:34:24;3.10;99.90
69533;DHT22;56729;52.036;5.332;2023-04-03T03:35:26;3.10;99.90
69533;DHT22;56729;52.036;5.332;2023-04-03T03:36:28;3.10;99.90
69533;DHT22;56729;52.036;5.332;2023-04-03T03:37:31;3.10;99.90
69533;DHT22;56729;52.036;5.332;2023-04-03T03:38:33;3.10;99.90
69533;DHT22;56729;52.036;5.332;2023-04-03T03:39:36;3.10;99.90
69533;DHT22;56729;52.036;5.332;2023-04-03T03:40:37;3.10;99.90
69533;DHT22;56729;52.036;5.332;2023-04-03T03:41:40;3.10;99.90
69533;DHT22;56729;52.036;5.332;2023-04-03T03:42:42;3.00;99.90
69533;DHT22;56729;52.036;5.332;2023-04-03T03:43:44;3.00;99.90
69533;DHT22;56729;52.036;5.332;2023-04-03T03:44:48;3.00;99.90
69533;DHT22;56729;52.036;5.332;2023-04-03T03:45:51;3.00;99.90
69533;DHT22;56729;52.036;5.332;2023-04-03T03:46:53;3.00;99.90
69533;DHT22;56729;52.036;5.332;2023-04-03T03:47:56;3.00;99.90
69533;DHT22;56729;52.036;5.332;2023-04-03T03:48:58;3.00;99.90
69533;DHT22;56729;52.036;5.332;2023-04-03T03:50:01;3.00;99.90
69533;DHT22;56729;52.036;5.332;2023-04-03T03:51:03;3.00;99.90
69533;DHT22;56729;52.036;5.332;2023-04-03T03:52:09;3.00;99.90
69533;DHT22;56729;52.036;5.332;2023-04-03T03:53:14;3.00;99.90
69533;DHT22;56729;52.036;5.332;2023-04-03T03:54:17;3.00;99.90
69533;DHT22;56729;52.036;5.332;2023-04-03T03:55:19;3.00;99.90
69533;DHT22;56729;52.036;5.332;2023-04-03T03:56:26;3.00;99.90
69533;DHT22;56729;52.036;5.332;2023-04-03T03:57:28;3.00;99.90
69533;DHT22;56729;52.036;5.332;2023-04-03T03:58:32;3.00;99.90
69533;DHT22;56729;52.036;5.332;2023-04-03T03:59:34;2.90;99.90
69533;DHT22;56729;52.036;5.332;2023-04-03T04:00:36;2.90;99.90
69533;DHT22;56729;52.036;5.332;2023-04-03T04:01:38;2.90;99.90
69533;DHT22;56729;52.036;5.332;2023-04-03T04:02:40;2.90;99.90
69533;DHT22;56729;52.036;5.332;2023-04-03T04:03:47;2.90;99.90
69533;DHT22;56729;52.036;5.332;2023-04-03T04:04:54;2.90;99.90
69533;DHT22;56729;52.036;5.332;2023-04-03T04:05:56;2.90;99.90
69533;DHT22;56729;52.036;5.332;2023-04-03T04:06:58;2.90;99.90
69533;DHT22;56729;52.036;5.332;2023-04-03T04:08:03;2.90;99.90
69533;DHT22;56729;52.036;5.332;2023-04-03T04:09:05;2.90;99.90
69533;DHT22;56729;52.036;5.332;2023-04-03T04:10:07;2.90;99.90
69533;DHT22;56729;52.036;5.332;2023-04-03T04:11:10;2.90;99.90
69533;DHT22;56729;52.036;5.332;2023-04-03T04:12:12;2.80;99.90
69533;DHT22;56729;52.036;5.332;2023-04-03T04:13:16;2.80;99.90
69533;DHT22;56729;52.036;5.332;2023-04-03T04:14:18;2.80;99.90
69533;DHT22;56729;52.036;5.332;2023-04-03T04:15:22;2.80;99.90
69533;DHT22;56729;52.036;5.332;2023-04-03T04:16:25;2.80;99.90
69533;DHT22;56729;52.036;5.332;2023-04-03T04:17:28;2.70;99.90
69533;DHT22;56729;52.036;5.332;2023-04-03T04:18:31;2.70;99.90
69533;DHT22;56729;52.036;5.332;2023-04-03T04:19:33;2.70;99.90
69533;DHT22;56729;52.036;5.332;2023-04-03T04:20:34;2.70;99.90
69533;DHT22;56729;52.036;5.332;2023-04-03T04:21:36;2.70;99.90
69533;DHT22;56729;52.036;5.332;2023-04-03T04:22:38;2.70;99.90
69533;DHT22;56729;52.036;5.332;2023-04-03T04:23:41;2.70;99.90
69533;DHT22;56729;52.036;5.332;2023-04-03T04:24:42;2.70;99.90
69533;DHT22;56729;52.036;5.332;2023-04-03T04:25:48;2.70;99.90
69533;DHT22;56729;52.036;5.332;2023-04-03T04:26:50;2.70;99.90
69533;DHT22;56729;52.036;5.332;2023-04-03T04:27:53;2.70;99.90
69533;DHT22;56729;52.036;5.332;2023-04-03T04:28:54;2.70;99.90
69533;DHT22;56729;52.036;5.332;2023-04-03T04:29:56;2.70;99.90
69533;DHT22;56729;52.036;5.332;2023-04-03T04:31:00;2.70;99.90
69533;DHT22;56729;52.036;5.332;2023-04-03T04:32:04;2.70;99.90
69533;DHT22;56729;52.036;5.332;2023-04-03T04:33:06;2.60;99.90
69533;DHT22;56729;52.036;5.332;2023-04-03T04:34:08;2.60;99.90
69533;DHT22;56729;52.036;5.332;2023-04-03T04:35:12;2.60;99.90
69533;DHT22;56729;52.036;5.332;2023-04-03T04:36:19;2.60;99.90
69533;DHT22;56729;52.036;5.332;2023-04-03T04:37:22;2.60;99.90
69533;DHT22;56729;52.036;5.332;2023-04-03T04:38:24;2.50;99.90
69533;DHT22;56729;52.036;5.332;2023-04-03T04:39:27;2.50;99.90
69533;DHT22;56729;52.036;5.332;2023-04-03T04:40:31;2.50;99.90
69533;DHT22;56729;52.036;5.332;2023-04-03T04:41:34;2.50;99.90
69533;DHT22;56729;52.036;5.332;2023-04-03T04:42:38;2.50;99.90
69533;DHT22;56729;52.036;5.332;2023-04-03T04:43:40;2.50;99.90
69533;DHT22;56729;52.036;5.332;2023-04-03T04:44:44;2.50;99.90
69533;DHT22;56729;52.036;5.332;2023-04-03T04:45:47;2.40;99.90
69533;DHT22;56729;52.036;5.332;2023-04-03T04:46:53;2.40;99.90
69533;DHT22;56729;52.036;5.332;2023-04-03T04:47:56;2.40;99.90
69533;DHT22;56729;52.036;5.332;2023-04-03T04:48:59;2.40;99.90
69533;DHT22;56729;52.036;5.332;2023-04-03T04:50:03;2.40;99.90
69533;DHT22;56729;52.036;5.332;2023-04-03T04:51:07;2.30;99.90
69533;DHT22;56729;52.036;5.332;2023-04-03T04:52:11;2.30;99.90
69533;DHT22;56729;52.036;5.332;2023-04-03T04:53:14;2.30;99.90
69533;DHT22;56729;52.036;5.332;2023-04-03T04:54:17;2.30;99.90
69533;DHT22;56729;52.036;5.332;2023-04-03T04:55:21;2.30;99.90
69533;DHT22;56729;52.036;5.332;2023-04-03T04:56:24;2.30;99.90
69533;DHT22;56729;52.036;5.332;2023-04-03T04:57:29;2.30;99.90
69533;DHT22;56729;52.036;5.332;2023-04-03T04:58:33;2.30;99.90
69533;DHT22;56729;52.036;5.332;2023-04-03T04:59:36;2.30;99.90
69533;DHT22;56729;52.036;5.332;2023-04-03T05:00:38;2.30;99.90
69533;DHT22;56729;52.036;5.332;2023-04-03T05:01:41;2.30;99.90
69533;DHT22;56729;52.036;5.332;2023-04-03T05:02:48;2.30;99.90
69533;DHT22;56729;52.036;5.332;2023-04-03T05:03:50;2.30;99.90
69533;DHT22;56729;52.036;5.332;2023-04-03T05:04:53;2.30;99.90
69533;DHT22;56729;52.036;5.332;2023-04-03T05:06:00;2.30;99.90
69533;DHT22;56729;52.036;5.332;2023-04-03T05:07:05;2.30;99.90
69533;DHT22;56729;52.036;5.332;2023-04-03T05:08:09;2.30;99.90
69533;DHT22;56729;52.036;5.332;2023-04-03T05:09:13;2.30;99.90
69533;DHT22;56729;52.036;5.332;2023-04-03T05:10:17;2.30;99.90
69533;DHT22;56729;52.036;5.332;2023-04-03T05:11:20;2.30;99.90
69533;DHT22;56729;52.036;5.332;2023-04-03T05:12:25;2.30;99.90
69533;DHT22;56729;52.036;5.332;2023-04-03T05:13:32;2.30;99.90
69533;DHT22;56729;52.036;5.332;2023-04-03T05:14:34;2.30;99.90
69533;DHT22;56729;52.036;5.332;2023-04-03T05:15:40;2.30;99.90
69533;DHT22;56729;52.036;5.332;2023-04-03T05:16:42;2.30;99.90
69533;DHT22;56729;52.036;5.332;2023-04-03T05:17:44;2.30;99.90
69533;DHT22;56729;52.036;5.332;2023-04-03T05:18:48;2.20;99.90
69533;DHT22;56729;52.036;5.332;2023-04-03T05:19:53;2.30;99.90
69533;DHT22;56729;52.036;5.332;2023-04-03T05:20:57;2.30;99.90
69533;DHT22;56729;52.036;5.332;2023-04-03T05:22:01;2.30;99.90
69533;DHT22;56729;52.036;5.332;2023-04-03T05:23:04;2.30;99.90
69533;DHT22;56729;52.036;5.332;2023-04-03T05:24:08;2.30;99.90
69533;DHT22;56729;52.036;5.332;2023-04-03T05:25:13;2.30;99.90
69533;DHT22;56729;52.036;5.332;2023-04-03T05:26:18;2.30;99.90
69533;DHT22;56729;52.036;5.332;2023-04-03T05:27:24;2.30;99.90
69533;DHT22;56729;52.036;5.332;2023-04-03T05:28:28;2.30;99.90
69533;DHT22;56729;52.036;5.332;2023-04-03T05:29:31;2.30;99.90
69533;DHT22;56729;52.036;5.332;2023-04-03T05:30:35;2.30;99.90
69533;DHT22;56729;52.036;5.332;2023-04-03T05:31:38;2.30;99.90
69533;DHT22;56729;52.036;5.332;2023-04-03T05:32:42;2.30;99.90
69533;DHT22;56729;52.036;5.332;2023-04-03T05:33:52;2.30;99.90
69533;DHT22;56729;52.036;5.332;2023-04-03T05:34:54;2.30;99.90
69533;DHT22;56729;52.036;5.332;2023-04-03T05:35:56;2.30;99.90
69533;DHT22;56729;52.036;5.332;2023-04-03T05:37:01;2.30;99.90
69533;DHT22;56729;52.036;5.332;2023-04-03T05:38:05;2.30;99.90
69533;DHT22;56729;52.036;5.332;2023-04-03T05:39:08;2.30;99.90
69533;DHT22;56729;52.036;5.332;2023-04-03T05:40:13;2.30;99.90
69533;DHT22;56729;52.036;5.332;2023-04-03T05:41:19;2.30;99.90
69533;DHT22;56729;52.036;5.332;2023-04-03T05:42:23;2.30;99.90
69533;DHT22;56729;52.036;5.332;2023-04-03T05:43:25;2.30;99.90
69533;DHT22;56729;52.036;5.332;2023-04-03T05:44:27;2.30;99.90
69533;DHT22;56729;52.036;5.332;2023-04-03T05:45:29;2.30;99.90
69533;DHT22;56729;52.036;5.332;2023-04-03T05:46:32;2.30;99.90
69533;DHT22;56729;52.036;5.332;2023-04-03T05:47:39;2.30;99.90
69533;DHT22;56729;52.036;5.332;2023-04-03T05:48:42;2.20;99.90
69533;DHT22;56729;52.036;5.332;2023-04-03T05:49:47;2.20;99.90
69533;DHT22;56729;52.036;5.332;2023-04-03T05:50:53;2.20;99.90
69533;DHT22;56729;52.036;5.332;2023-04-03T05:52:00;2.20;99.90
69533;DHT22;56729;52.036;5.332;2023-04-03T05:53:04;2.20;99.90
69533;DHT22;56729;52.036;5.332;2023-04-03T05:54:18;2.20;99.90
69533;DHT22;56729;52.036;5.332;2023-04-03T05:55:21;2.20;99.90
69533;DHT22;56729;52.036;5.332;2023-04-03T05:56:23;2.20;99.90
69533;DHT22;56729;52.036;5.332;2023-04-03T05:57:27;2.10;99.90
69533;DHT22;56729;52.036;5.332;2023-04-03T05:58:30;2.10;99.90
69533;DHT22;56729;52.036;5.332;2023-04-03T05:59:31;2.10;99.90
69533;DHT22;56729;52.036;5.332;2023-04-03T06:00:34;2.10;99.90
69533;DHT22;56729;52.036;5.332;2023-04-03T06:01:37;2.10;99.90
69533;DHT22;56729;52.036;5.332;2023-04-03T06:02:39;2.10;99.90
69533;DHT22;56729;52.036;5.332;2023-04-03T06:03:46;2.10;99.90
69533;DHT22;56729;52.036;5.332;2023-04-03T06:04:48;2.10;99.90
69533;DHT22;56729;52.036;5.332;2023-04-03T06:05:51;2.10;99.90
69533;DHT22;56729;52.036;5.332;2023-04-03T06:06:56;2.10;99.90
69533;DHT22;56729;52.036;5.332;2023-04-03T06:08:00;2.10;99.90
69533;DHT22;56729;52.036;5.332;2023-04-03T06:09:02;2.20;99.90
69533;DHT22;56729;52.036;5.332;2023-04-03T06:10:05;2.20;99.90
69533;DHT22;56729;52.036;5.332;2023-04-03T06:11:07;2.30;99.90
69533;DHT22;56729;52.036;5.332;2023-04-03T06:12:10;2.30;99.90
69533;DHT22;56729;52.036;5.332;2023-04-03T06:13:13;2.30;99.90
69533;DHT22;56729;52.036;5.332;2023-04-03T06:14:15;2.40;99.90
69533;DHT22;56729;52.036;5.332;2023-04-03T06:15:17;2.40;99.90
69533;DHT22;56729;52.036;5.332;2023-04-03T06:16:19;2.40;99.90
69533;DHT22;56729;52.036;5.332;2023-04-03T06:17:21;2.50;99.90
69533;DHT22;56729;52.036;5.332;2023-04-03T06:18:23;2.50;99.90
69533;DHT22;56729;52.036;5.332;2023-04-03T06:19:25;2.50;99.90
69533;DHT22;56729;52.036;5.332;2023-04-03T06:20:30;2.60;99.90
69533;DHT22;56729;52.036;5.332;2023-04-03T06:21:32;2.60;99.90
69533;DHT22;56729;52.036;5.332;2023-04-03T06:22:35;2.60;99.90
69533;DHT22;56729;52.036;5.332;2023-04-03T06:23:36;2.60;99.90
69533;DHT22;56729;52.036;5.332;2023-04-03T06:24:39;2.70;99.90
69533;DHT22;56729;52.036;5.332;2023-04-03T06:25:41;2.70;99.90
69533;DHT22;56729;52.036;5.332;2023-04-03T06:26:44;2.70;99.90
69533;DHT22;56729;52.036;5.332;2023-04-03T06:27:47;2.70;99.90
69533;DHT22;56729;52.036;5.332;2023-04-03T06:28:49;2.80;99.90
69533;DHT22;56729;52.036;5.332;2023-04-03T06:29:51;2.80;99.90
69533;DHT22;56729;52.036;5.332;2023-04-03T06:30:53;2.80;99.90
69533;DHT22;56729;52.036;5.332;2023-04-03T06:31:55;2.80;99.90
69533;DHT22;56729;52.036;5.332;2023-04-03T06:32:57;2.80;99.90
69533;DHT22;56729;52.036;5.332;2023-04-03T06:33:59;2.90;99.90
69533;DHT22;56729;52.036;5.332;2023-04-03T06:35:01;2.90;99.90
69533;DHT22;56729;52.036;5.332;2023-04-03T06:36:04;2.90;99.90
69533;DHT22;56729;52.036;5.332;2023-04-03T06:37:21;2.90;99.90
69533;DHT22;56729;52.036;5.332;2023-04-03T06:38:23;2.90;99.90
69533;DHT22;56729;52.036;5.332;2023-04-03T06:39:25;3.00;99.90
69533;DHT22;56729;52.036;5.332;2023-04-03T06:40:27;3.00;99.90
69533;DHT22;56729;52.036;5.332;2023-04-03T06:41:28;3.00;99.90
69533;DHT22;56729;52.036;5.332;2023-04-03T06:42:30;3.00;99.90
69533;DHT22;56729;52.036;5.332;2023-04-03T06:43:40;3.00;99.90
69533;DHT22;56729;52.036;5.332;2023-04-03T06:44:42;3.10;99.90
69533;DHT22;56729;52.036;5.332;2023-04-03T06:45:44;3.00;99.90
69533;DHT22;56729;52.036;5.332;2023-04-03T06:46:46;3.10;99.90
69533;DHT22;56729;52.036;5.332;2023-04-03T06:47:48;3.10;99.90
69533;DHT22;56729;52.036;5.332;2023-04-03T06:48:50;3.10;99.90
69533;DHT22;56729;52.036;5.332;2023-04-03T06:49:52;3.10;99.90
69533;DHT22;56729;52.036;5.332;2023-04-03T06:50:54;3.10;99.90
69533;DHT22;56729;52.036;5.332;2023-04-03T06:51:56;3.20;99.90